Terminal Aerodrome Forecast
Issued by NWS

Home | Current Version | Previous Version | Text Only | Print | Product List | Glossary On
Versions: 1 2 3 4 5 6 7 8 9 10 11 12 13 14 15 16 17 18
000
FTUS41 KPBZ 192321
TAFZZV
TAF
KZZV 192321Z 2000/2024 28008G16KT P6SM OVC045
     FM200400 28007KT P6SM SCT035
     FM201200 23007KT P6SM SKC=

USA.gov is the U.S. government's official web portal to all federal, state and local government web resources and services.